createdAt,value
2023-08-26T00:00:12.680Z,93948.56
2023-08-26T00:03:16.025Z,93953.66
2023-08-26T00:06:19.393Z,93954.03
2023-08-26T00:09:22.207Z,93954.88
2023-08-26T00:12:25.451Z,93950.84
2023-08-26T00:15:28.701Z,93953.28
2023-08-26T00:18:31.593Z,93943.84
2023-08-26T00:21:34.921Z,93947.78
2023-08-26T00:24:38.816Z,93944.63
2023-08-26T00:27:42.302Z,93949.88
2023-08-26T00:30:46.337Z,93941.28
2023-08-26T00:33:50.392Z,93944.59
2023-08-26T00:36:54.168Z,93943.00
2023-08-26T00:39:57.278Z,93949.78
2023-08-26T00:43:09.973Z,93955.69
2023-08-26T00:46:16.079Z,93951.88
2023-08-26T00:49:20.180Z,93953.44
2023-08-26T00:52:23.694Z,93953.63
2023-08-26T00:55:27.229Z,93944.38
2023-08-26T00:58:32.487Z,93947.50
2023-08-26T01:01:38.700Z,93940.81
2023-08-26T01:04:42.509Z,93942.38
2023-08-26T01:07:49.316Z,93938.22
2023-08-26T01:11:07.640Z,93935.03
2023-08-26T01:14:35.397Z,93933.63
2023-08-26T01:17:38.388Z,93933.47
2023-08-26T01:20:42.964Z,93926.50
2023-08-26T01:23:46.901Z,93926.28
2023-08-26T01:26:51.821Z,93931.22
2023-08-26T01:29:55.367Z,93926.19
2023-08-26T01:33:17.163Z,93928.16
2023-08-26T01:36:24.051Z,93926.28
2023-08-26T01:39:29.457Z,93926.06
2023-08-26T01:42:33.552Z,93924.22
2023-08-26T01:45:36.955Z,93919.25
2023-08-26T01:48:42.008Z,93915.16
2023-08-26T01:51:46.413Z,93917.50
2023-08-26T01:54:51.012Z,93914.06
2023-08-26T01:57:55.231Z,93913.06
2023-08-26T02:00:58.288Z,93904.47
2023-08-26T02:04:02.727Z,93904.00
2023-08-26T02:07:05.793Z,93900.69
2023-08-26T02:10:09.692Z,93899.44
2023-08-26T02:13:13.726Z,93899.47
2023-08-26T02:16:16.996Z,93903.38
2023-08-26T02:19:22.377Z,93894.91
2023-08-26T02:22:26.318Z,93897.97
2023-08-26T02:25:30.128Z,93888.59
2023-08-26T02:28:33.607Z,93894.84
2023-08-26T02:31:36.780Z,93880.34
2023-08-26T02:34:39.632Z,93885.44
2023-08-26T02:37:43.121Z,93878.06
2023-08-26T02:40:56.463Z,93868.56
2023-08-26T02:43:59.293Z,93868.28
2023-08-26T02:47:02.146Z,93863.81
2023-08-26T02:50:06.869Z,93859.31
2023-08-26T02:53:10.690Z,93861.13
2023-08-26T02:56:14.624Z,93855.69
2023-08-26T02:59:18.306Z,93844.84
2023-08-26T03:02:26.418Z,93844.41
2023-08-26T03:05:30.976Z,93838.66
2023-08-26T03:08:33.780Z,93837.69
2023-08-26T03:11:38.882Z,93830.41
2023-08-26T03:14:42.197Z,93829.09
2023-08-26T03:17:46.208Z,93823.34
2023-08-26T03:20:49.178Z,93819.25
2023-08-26T03:23:52.700Z,93816.19
2023-08-26T03:26:55.859Z,93821.38
2023-08-26T03:29:58.707Z,93813.09
2023-08-26T03:33:02.081Z,93806.47
2023-08-26T03:36:07.344Z,93801.13
2023-08-26T03:39:10.582Z,93800.06
2023-08-26T03:42:13.701Z,93797.81
2023-08-26T03:45:17.781Z,93798.06
2023-08-26T03:48:21.575Z,93787.19
2023-08-26T03:51:25.171Z,93781.44
2023-08-26T03:54:29.997Z,93777.81
2023-08-26T03:57:33.134Z,93769.16
2023-08-26T04:00:36.657Z,93769.47
2023-08-26T04:03:46.215Z,93764.75
2023-08-26T04:06:49.772Z,93764.34
2023-08-26T04:09:53.439Z,93760.19
2023-08-26T04:13:18.943Z,93758.78
2023-08-26T04:16:23.222Z,93763.31
2023-08-26T04:19:27.271Z,93750.88
2023-08-26T04:22:31.200Z,93761.72
2023-08-26T04:25:34.971Z,93750.34
2023-08-26T04:28:38.635Z,93750.97
2023-08-26T04:31:42.563Z,93744.34
2023-08-26T04:34:46.341Z,93742.34
2023-08-26T04:37:50.165Z,93747.16
2023-08-26T04:40:53.443Z,93737.09
2023-08-26T04:43:58.133Z,93740.91
2023-08-26T04:47:01.534Z,93731.88
2023-08-26T04:50:05.759Z,93731.78
2023-08-26T04:53:09.208Z,93725.88
2023-08-26T04:56:12.116Z,93730.16
2023-08-26T04:59:15.633Z,93729.09
2023-08-26T05:02:19.243Z,93736.47
2023-08-26T05:05:22.701Z,93724.84
2023-08-26T05:08:26.199Z,93723.69
2023-08-26T05:11:29.838Z,93720.00
2023-08-26T05:14:33.624Z,93718.25
2023-08-26T05:17:36.763Z,93717.19
2023-08-26T05:20:45.881Z,93711.00
2023-08-26T05:23:49.468Z,93704.41
2023-08-26T05:26:52.790Z,93703.91
2023-08-26T05:29:56.507Z,93716.00
2023-08-26T05:33:01.488Z,93702.06
2023-08-26T05:36:04.648Z,93696.59
2023-08-26T05:39:07.552Z,93695.69
2023-08-26T05:42:11.453Z,93678.25
2023-08-26T05:45:14.897Z,93681.66
2023-08-26T05:48:18.929Z,93687.78
2023-08-26T05:51:22.203Z,93675.94
2023-08-26T05:54:25.030Z,93682.69
2023-08-26T05:57:28.052Z,93667.31
2023-08-26T06:00:31.772Z,93674.00
2023-08-26T06:03:34.854Z,93659.56
2023-08-26T06:06:38.756Z,93661.72
2023-08-26T06:09:43.126Z,93654.28
2023-08-26T06:12:47.019Z,93663.44
2023-08-26T06:15:59.916Z,93658.16
2023-08-26T06:19:07.437Z,93653.41
2023-08-26T06:22:12.721Z,93645.97
2023-08-26T06:25:16.677Z,93643.34
2023-08-26T06:28:20.610Z,93640.50
2023-08-26T06:31:24.522Z,93647.19
2023-08-26T06:34:29.930Z,93628.47
2023-08-26T06:37:32.905Z,93624.06
2023-08-26T06:40:36.396Z,93623.91
2023-08-26T06:43:39.828Z,93623.03
2023-08-26T06:46:43.067Z,93623.56
2023-08-26T06:49:46.552Z,93619.66
2023-08-26T06:52:51.226Z,93609.31
2023-08-26T06:55:55.550Z,93612.47
2023-08-26T06:58:59.595Z,93614.19
2023-08-26T07:02:02.811Z,93607.50
2023-08-26T07:05:06.435Z,93611.72
2023-08-26T07:08:10.288Z,93597.91
2023-08-26T07:11:14.788Z,93596.16
2023-08-26T07:14:18.192Z,93600.56
2023-08-26T07:17:21.363Z,93600.78
2023-08-26T07:20:26.211Z,93604.69
2023-08-26T07:23:29.962Z,93587.19
2023-08-26T07:26:33.441Z,93598.00
2023-08-26T07:29:37.232Z,93601.13
2023-08-26T07:32:41.644Z,93597.75
2023-08-26T07:35:45.481Z,93586.78
2023-08-26T07:38:49.264Z,93593.31
2023-08-26T07:41:53.392Z,93588.22
2023-08-26T07:44:56.903Z,93588.38
2023-08-26T07:51:05.674Z,93589.09
2023-08-26T07:54:09.205Z,93589.59
2023-08-26T07:57:13.020Z,93586.44
2023-08-26T08:00:16.130Z,93588.56
2023-08-26T08:03:19.071Z,93596.72
2023-08-26T08:06:22.032Z,93591.28
2023-08-26T08:09:25.561Z,93594.44
2023-08-26T08:12:28.448Z,93591.13
2023-08-26T08:15:32.200Z,93587.19
2023-08-26T08:18:35.724Z,93586.50
2023-08-26T08:21:38.830Z,93585.44
2023-08-26T08:24:42.332Z,93577.28
2023-08-26T08:27:46.166Z,93578.34
2023-08-26T08:30:51.421Z,93572.69
2023-08-26T08:33:55.173Z,93576.91
2023-08-26T08:36:59.064Z,93577.78
2023-08-26T08:40:02.665Z,93581.84
2023-08-26T08:43:08.344Z,93573.38
2023-08-26T08:46:11.633Z,93578.53
2023-08-26T08:49:15.562Z,93576.59
2023-08-26T08:52:21.453Z,93580.84
2023-08-26T08:55:25.319Z,93576.34
2023-08-26T08:58:30.676Z,93585.00
2023-08-26T09:01:34.806Z,93584.25
2023-08-26T09:04:38.735Z,93583.16
2023-08-26T09:07:43.382Z,93591.97
2023-08-26T09:10:49.273Z,93580.38
2023-08-26T09:13:52.932Z,93586.41
2023-08-26T09:16:56.741Z,93577.78
2023-08-26T09:20:02.074Z,93587.16
2023-08-26T09:23:06.427Z,93586.28
2023-08-26T09:26:09.650Z,93585.44
2023-08-26T09:29:21.729Z,93590.56
2023-08-26T09:32:35.230Z,93590.63
2023-08-26T09:38:56.584Z,93601.44
2023-08-26T09:42:02.032Z,93595.81
2023-08-26T09:45:09.489Z,93603.59
2023-08-26T09:48:22.799Z,93605.19
2023-08-26T09:51:29.492Z,93610.13
2023-08-26T09:54:34.507Z,93611.34
2023-08-26T09:57:38.251Z,93615.78
2023-08-26T10:00:41.853Z,93613.28
2023-08-26T10:03:50.285Z,93617.34
2023-08-26T10:07:00.163Z,93629.31
2023-08-26T10:10:15.019Z,93627.03
2023-08-26T10:13:23.568Z,93633.16
2023-08-26T10:16:35.746Z,93640.72
2023-08-26T10:19:40.987Z,93639.34
2023-08-26T10:22:44.933Z,93632.09
2023-08-26T10:25:47.995Z,93639.72
2023-08-26T10:28:52.506Z,93636.00
2023-08-26T10:31:56.122Z,93639.16
2023-08-26T10:35:01.598Z,93648.88
2023-08-26T10:38:14.979Z,93643.75
2023-08-26T10:41:18.873Z,93650.06
2023-08-26T10:44:32.409Z,93651.44
2023-08-26T10:47:47.385Z,93651.41
2023-08-26T10:51:01.618Z,93655.25
2023-08-26T10:54:06.885Z,93652.38
2023-08-26T10:57:10.712Z,93656.22
2023-08-26T11:00:15.030Z,93654.06
2023-08-26T11:03:27.518Z,93663.38
2023-08-26T11:06:38.813Z,93651.50
2023-08-26T11:09:42.361Z,93652.53
2023-08-26T11:12:48.683Z,93659.69
2023-08-26T11:15:53.450Z,93660.66
2023-08-26T11:18:59.187Z,93662.47
2023-08-26T11:22:04.392Z,93657.22
2023-08-26T11:25:09.053Z,93673.72
2023-08-26T11:28:13.224Z,93674.59
2023-08-26T11:31:17.776Z,93677.28
2023-08-26T11:34:30.437Z,93683.56
2023-08-26T11:37:48.774Z,93691.91
2023-08-26T11:40:52.682Z,93689.50
2023-08-26T11:43:56.409Z,93691.88
2023-08-26T11:46:59.544Z,93698.47
2023-08-26T11:50:04.230Z,93693.28
2023-08-26T11:53:08.044Z,93697.53
2023-08-26T11:56:11.689Z,93696.28
2023-08-26T11:59:24.106Z,93701.84
2023-08-26T12:02:28.227Z,93699.56
2023-08-26T12:05:54.340Z,93707.06
2023-08-26T12:08:59.439Z,93697.91
2023-08-26T12:12:09.170Z,93699.69
2023-08-26T12:15:18.383Z,93704.38
2023-08-26T12:18:23.413Z,93710.06
2023-08-26T12:21:32.830Z,93700.81
2023-08-26T12:24:42.360Z,93708.06
2023-08-26T12:27:47.117Z,93717.75
2023-08-26T12:30:51.259Z,93715.44
2023-08-26T12:34:00.314Z,93721.75
2023-08-26T12:37:04.962Z,93730.38
2023-08-26T12:40:09.415Z,93723.75
2023-08-26T12:43:13.871Z,93727.75
2023-08-26T12:46:18.386Z,93730.22
2023-08-26T12:49:27.873Z,93725.03
2023-08-26T12:52:32.991Z,93737.50
2023-08-26T12:55:36.607Z,93737.84
2023-08-26T12:58:41.144Z,93745.25
2023-08-26T13:01:45.457Z,93747.94
2023-08-26T13:04:50.023Z,93744.41
2023-08-26T13:07:54.221Z,93750.59
2023-08-26T13:10:58.527Z,93752.47
2023-08-26T13:14:02.813Z,93743.84
2023-08-26T13:17:07.022Z,93753.19
2023-08-26T13:20:13.815Z,93755.84
2023-08-26T13:23:17.402Z,93759.75
2023-08-26T13:26:21.900Z,93756.41
2023-08-26T13:29:27.360Z,93760.03
2023-08-26T13:32:31.950Z,93758.63
2023-08-26T13:35:36.111Z,93761.75
2023-08-26T13:38:40.683Z,93755.38
2023-08-26T13:41:44.766Z,93760.91
2023-08-26T13:44:49.585Z,93764.09
2023-08-26T13:47:54.124Z,93759.59
2023-08-26T13:51:00.468Z,93758.41
2023-08-26T13:54:04.645Z,93772.47
2023-08-26T13:57:10.351Z,93764.84
2023-08-26T14:00:16.264Z,93766.78
2023-08-26T14:03:20.225Z,93761.34
2023-08-26T14:06:24.559Z,93767.84
2023-08-26T14:09:29.188Z,93768.28
2023-08-26T14:12:33.628Z,93773.34
2023-08-26T14:15:42.319Z,93775.22
2023-08-26T14:18:47.323Z,93770.47
2023-08-26T14:22:15.818Z,93774.75
2023-08-26T14:25:21.251Z,93775.47
2023-08-26T14:28:25.463Z,93770.94
2023-08-26T14:31:29.189Z,93778.56
2023-08-26T14:34:33.053Z,93773.31
2023-08-26T14:37:37.588Z,93771.66
2023-08-26T14:40:45.279Z,93776.16
2023-08-26T14:43:50.681Z,93775.47
2023-08-26T14:46:54.194Z,93781.16
2023-08-26T14:49:58.894Z,93789.25
2023-08-26T14:53:03.826Z,93781.81
2023-08-26T14:56:08.151Z,93785.84
2023-08-26T14:59:11.687Z,93783.47
2023-08-26T15:02:17.729Z,93786.31
2023-08-26T15:05:21.049Z,93776.03
2023-08-26T15:08:24.720Z,93786.00
2023-08-26T15:11:27.991Z,93782.66
2023-08-26T15:14:31.490Z,93788.78
2023-08-26T15:17:34.690Z,93786.16
2023-08-26T15:20:38.564Z,93791.59
2023-08-26T15:23:42.407Z,93790.13
2023-08-26T15:26:45.238Z,93779.59
2023-08-26T15:29:49.037Z,93786.19
2023-08-26T15:32:52.483Z,93789.00
2023-08-26T15:35:56.250Z,93793.97
2023-08-26T15:38:59.755Z,93799.69
2023-08-26T15:42:05.182Z,93811.28
2023-08-26T15:45:08.630Z,93806.47
2023-08-26T15:48:12.422Z,93811.97
2023-08-26T15:51:15.602Z,93814.72
2023-08-26T15:54:19.078Z,93811.19
2023-08-26T15:57:22.665Z,93812.63
2023-08-26T16:00:26.230Z,93812.38
2023-08-26T16:03:29.360Z,93811.91
2023-08-26T16:06:32.375Z,93820.44
2023-08-26T16:09:35.166Z,93819.22
2023-08-26T16:12:38.149Z,93823.44
2023-08-26T16:15:41.413Z,93809.81
2023-08-26T16:18:44.945Z,93819.28
2023-08-26T16:21:48.408Z,93816.88
2023-08-26T16:24:51.231Z,93823.94
2023-08-26T16:27:54.826Z,93826.66
2023-08-26T16:30:58.264Z,93819.16
2023-08-26T16:34:01.147Z,93819.53
2023-08-26T16:37:08.185Z,93813.72
2023-08-26T16:40:12.366Z,93810.25
2023-08-26T16:43:15.794Z,93820.16
2023-08-26T16:46:19.276Z,93810.19
2023-08-26T16:49:22.773Z,93819.72
2023-08-26T16:52:26.514Z,93818.47
2023-08-26T16:55:29.951Z,93820.16
2023-08-26T16:58:32.812Z,93825.44
2023-08-26T17:01:37.049Z,93825.69
2023-08-26T17:04:40.721Z,93822.25
2023-08-26T17:07:44.499Z,93822.53
2023-08-26T17:10:47.934Z,93824.44
2023-08-26T17:13:51.804Z,93828.47
2023-08-26T17:16:54.787Z,93824.81
2023-08-26T17:19:58.664Z,93823.75
2023-08-26T17:23:02.267Z,93831.97
2023-08-26T17:26:05.763Z,93836.88
2023-08-26T17:29:09.599Z,93834.19
2023-08-26T17:32:13.104Z,93832.16
2023-08-26T17:35:17.322Z,93834.59
2023-08-26T17:38:20.827Z,93837.44
2023-08-26T17:41:23.979Z,93830.72
2023-08-26T17:44:27.043Z,93830.97
2023-08-26T17:47:30.229Z,93838.72
2023-08-26T17:50:33.680Z,93841.31
2023-08-26T17:53:37.288Z,93835.91
2023-08-26T17:56:40.079Z,93844.72
2023-08-26T17:59:43.797Z,93846.06
2023-08-26T18:02:46.657Z,93848.19
2023-08-26T18:05:49.792Z,93853.56
2023-08-26T18:08:52.858Z,93845.34
2023-08-26T18:11:56.681Z,93850.00
2023-08-26T18:15:00.171Z,93846.81
2023-08-26T18:18:04.012Z,93853.09
2023-08-26T18:21:08.657Z,93857.19
2023-08-26T18:24:11.501Z,93857.19
2023-08-26T18:27:15.227Z,93859.53
2023-08-26T18:30:19.740Z,93865.50
2023-08-26T18:33:22.554Z,93864.72
2023-08-26T18:36:25.712Z,93868.56
2023-08-26T18:39:29.140Z,93871.72
2023-08-26T18:42:33.082Z,93868.13
2023-08-26T18:45:35.869Z,93862.97
2023-08-26T18:48:38.723Z,93867.16
2023-08-26T18:51:41.868Z,93875.00
2023-08-26T18:54:45.354Z,93870.44
2023-08-26T18:57:48.529Z,93870.28
2023-08-26T19:00:53.479Z,93877.28
2023-08-26T19:03:57.654Z,93870.75
2023-08-26T19:07:01.611Z,93873.97
2023-08-26T19:10:05.499Z,93875.00
2023-08-26T19:13:10.863Z,93864.22
2023-08-26T19:16:13.924Z,93876.63
2023-08-26T19:19:17.394Z,93876.06
2023-08-26T19:22:21.357Z,93881.97
2023-08-26T19:25:24.239Z,93882.41
2023-08-26T19:28:27.962Z,93874.81
2023-08-26T19:31:31.431Z,93875.97
2023-08-26T19:34:34.341Z,93872.47
2023-08-26T19:37:37.225Z,93872.94
2023-08-26T19:40:40.122Z,93874.38
2023-08-26T19:43:44.566Z,93882.19
2023-08-26T19:46:48.136Z,93881.25
2023-08-26T19:49:50.994Z,93876.06
2023-08-26T19:52:54.495Z,93872.44
2023-08-26T19:55:59.129Z,93878.94
2023-08-26T19:59:02.857Z,93882.41
2023-08-26T20:02:06.356Z,93881.63
2023-08-26T20:05:10.217Z,93885.84
2023-08-26T20:08:13.891Z,93882.22
2023-08-26T20:11:16.677Z,93880.53
2023-08-26T20:14:20.412Z,93888.03
2023-08-26T20:17:23.961Z,93882.72
2023-08-26T20:20:27.406Z,93891.06
2023-08-26T20:23:31.065Z,93891.66
2023-08-26T20:26:34.488Z,93886.50
2023-08-26T20:29:37.968Z,93884.78
2023-08-26T20:32:41.696Z,93882.19
2023-08-26T20:35:45.495Z,93888.34
2023-08-26T20:38:50.790Z,93890.22
2023-08-26T20:41:54.311Z,93891.25
2023-08-26T20:44:59.239Z,93883.31
2023-08-26T20:48:02.759Z,93885.06
2023-08-26T20:51:05.969Z,93881.31
2023-08-26T20:54:08.871Z,93887.38
2023-08-26T20:57:12.257Z,93877.31
2023-08-26T21:00:15.828Z,93890.84
2023-08-26T21:03:20.156Z,93887.13
2023-08-26T21:06:23.028Z,93895.44
2023-08-26T21:09:26.763Z,93903.25
2023-08-26T21:12:30.254Z,93903.81
2023-08-26T21:15:33.797Z,93901.38
2023-08-26T21:18:37.948Z,93903.53
2023-08-26T21:21:41.699Z,93907.28
2023-08-26T21:24:45.134Z,93908.28
2023-08-26T21:27:48.903Z,93906.13
2023-08-26T21:30:55.818Z,93907.94
2023-08-26T21:33:59.539Z,93916.00
2023-08-26T21:37:03.047Z,93903.78
2023-08-26T21:40:07.957Z,93898.63
2023-08-26T21:43:14.428Z,93909.28
2023-08-26T21:46:17.363Z,93908.84
2023-08-26T21:49:20.306Z,93910.75
2023-08-26T21:52:25.478Z,93918.63
2023-08-26T21:55:29.070Z,93915.91
2023-08-26T21:58:32.833Z,93915.63
2023-08-26T22:01:36.225Z,93924.69
2023-08-26T22:04:39.948Z,93918.66
2023-08-26T22:07:42.724Z,93918.66
2023-08-26T22:10:47.083Z,93924.25
2023-08-26T22:13:50.523Z,93923.69
2023-08-26T22:16:53.355Z,93931.31
2023-08-26T22:19:56.305Z,93934.22
2023-08-26T22:23:00.318Z,93929.19
2023-08-26T22:26:04.246Z,93927.44
2023-08-26T22:29:07.401Z,93931.72
2023-08-26T22:32:10.191Z,93936.91
2023-08-26T22:35:14.187Z,93937.75
2023-08-26T22:38:19.612Z,93944.38
2023-08-26T22:41:23.365Z,93945.13
2023-08-26T22:44:26.705Z,93954.03
2023-08-26T22:47:30.812Z,93943.25
2023-08-26T22:50:34.002Z,93948.59
2023-08-26T22:53:39.588Z,93949.19
2023-08-26T22:56:43.108Z,93955.25
2023-08-26T22:59:47.440Z,93949.75
2023-08-26T23:02:50.311Z,93948.84
2023-08-26T23:06:02.824Z,93952.19
2023-08-26T23:09:06.370Z,93954.00
2023-08-26T23:12:10.365Z,93948.19
2023-08-26T23:15:14.109Z,93949.38
2023-08-26T23:18:17.888Z,93956.94
2023-08-26T23:21:21.274Z,93949.38
2023-08-26T23:24:24.604Z,93949.78
2023-08-26T23:27:29.280Z,93946.84
2023-08-26T23:30:33.080Z,93936.97
2023-08-26T23:33:35.894Z,93942.03
2023-08-26T23:36:38.986Z,93949.22
2023-08-26T23:39:42.545Z,93954.72
2023-08-26T23:42:46.053Z,93959.31
2023-08-26T23:45:49.508Z,93958.59
2023-08-26T23:48:53.583Z,93956.66
2023-08-26T23:51:56.451Z,93950.25
2023-08-26T23:55:00.223Z,93958.00
2023-08-26T23:58:03.375Z,93951.34
